Time;durP1;ratioP1;P1;durP2;ratioP2;P2;SDS_P1;SDS_P2;PMS_P1;PMS_P2;Temp;Humidity;BMP_temperature;BMP_pressure;BME280_temperature;BME280_humidity;BME280_pressure;Samples;Min_cycle;Max_cycle;Signal;HPM_P1;HPM_P2
2022/12/03 00:01:46;;;;;;;44.90;6.27;;;;;;;;;;4977071;28;20226;-83
2022/12/03 00:04:11;;;;;;;55.83;6.03;;;;;;;;;;4968535;28;20185;-83
2022/12/03 00:06:36;;;;;;;60.07;6.80;;;;;;;;;;4976712;28;20184;-83
2022/12/03 00:09:02;;;;;;;43.87;5.37;;;;;;;;;;4970955;28;20180;-83
2022/12/03 00:11:28;;;;;;;66.53;6.93;;;;;;;;;;4969318;28;20208;-83
2022/12/03 00:13:53;;;;;;;31.17;5.53;;;;;;;;;;4967878;28;20177;-83
2022/12/03 00:16:18;;;;;;;39.27;5.63;;;;;;;;;;4976753;28;20180;-83
2022/12/03 00:18:43;;;;;;;41.73;6.17;;;;;;;;;;4979228;28;20399;-83
2022/12/03 00:21:09;;;;;;;33.97;5.50;;;;;;;;;;4969945;28;20240;-83
2022/12/03 00:23:34;;;;;;;75.20;7.53;;;;;;;;;;4969751;28;20188;-83
2022/12/03 00:25:59;;;;;;;33.60;5.63;;;;;;;;;;4970336;28;20184;-83
2022/12/03 00:28:24;;;;;;;53.87;6.90;;;;;;;;;;4967190;28;20271;-83
2022/12/03 00:30:52;;;;;;;25.33;6.30;;;;;;;;;;4971555;28;20232;-83
2022/12/03 00:33:18;;;;;;;69.30;7.83;;;;;;;;;;4976966;28;20252;-83
2022/12/03 00:35:43;;;;;;;35.30;6.00;;;;;;;;;;4974613;28;20176;-83
2022/12/03 00:38:08;;;;;;;59.80;7.23;;;;;;;;;;4977939;28;20184;-83
2022/12/03 00:40:33;;;;;;;40.70;6.10;;;;;;;;;;4969327;28;20208;-82
2022/12/03 00:42:59;;;;;;;63.60;7.03;;;;;;;;;;4973456;28;20271;-83
2022/12/03 00:45:24;;;;;;;47.70;6.37;;;;;;;;;;4987298;28;20180;-83
2022/12/03 00:47:49;;;;;;;59.73;6.80;;;;;;;;;;4986072;28;20185;-83
2022/12/03 00:50:14;;;;;;;66.10;6.97;;;;;;;;;;4964874;28;20213;-83
2022/12/03 00:52:40;;;;;;;39.87;5.80;;;;;;;;;;4968163;28;20173;-83
2022/12/03 00:55:05;;;;;;;32.00;6.10;;;;;;;;;;4968269;28;20180;-83
2022/12/03 00:57:30;;;;;;;51.77;7.23;;;;;;;;;;4971595;28;20203;-83
2022/12/03 00:59:55;;;;;;;31.63;6.50;;;;;;;;;;4976162;28;20279;-83
2022/12/03 01:02:21;;;;;;;43.93;7.00;;;;;;;;;;4978971;28;20279;-83
2022/12/03 01:04:46;;;;;;;11.53;5.63;;;;;;;;;;4969842;28;20181;-83
2022/12/03 01:07:11;;;;;;;39.43;7.77;;;;;;;;;;4970828;28;20193;-83
2022/12/03 01:09:36;;;;;;;44.43;7.53;;;;;;;;;;4973205;28;20208;-83
2022/12/03 01:12:01;;;;;;;50.23;6.87;;;;;;;;;;4976107;28;20180;-83
2022/12/03 01:14:27;;;;;;;73.77;8.13;;;;;;;;;;4974036;28;20203;-83
2022/12/03 01:16:52;;;;;;;79.77;9.23;;;;;;;;;;4968804;28;20173;-83
2022/12/03 01:19:18;;;;;;;70.90;9.70;;;;;;;;;;4966815;28;20196;-83
2022/12/03 01:21:45;;;;;;;143.07;12.47;;;;;;;;;;4969595;28;20236;-83
2022/12/03 01:24:11;;;;;;;87.93;10.33;;;;;;;;;;4968265;28;20185;-83
2022/12/03 01:26:36;;;;;;;139.53;11.87;;;;;;;;;;4970887;28;20240;-83
2022/12/03 01:29:02;;;;;;;95.87;10.43;;;;;;;;;;4971165;28;20188;-83
2022/12/03 01:34:11;;;;;;;138.30;12.50;;;;;;;;;;4970386;28;20234;-83
2022/12/03 01:36:36;;;;;;;82.17;10.60;;;;;;;;;;4995502;28;20176;-83
2022/12/03 01:39:02;;;;;;;82.80;10.07;;;;;;;;;;4967549;28;20277;-83
2022/12/03 01:41:28;;;;;;;116.23;12.50;;;;;;;;;;4973863;28;20177;-83
2022/12/03 01:43:53;;;;;;;42.77;7.27;;;;;;;;;;4973029;28;20264;-83
2022/12/03 01:46:21;;;;;;;65.10;9.40;;;;;;;;;;4979293;28;20280;-83
2022/12/03 01:48:46;;;;;;;68.20;12.43;;;;;;;;;;4975132;28;20185;-83
2022/12/03 01:51:12;;;;;;;85.40;13.00;;;;;;;;;;4973106;28;20208;-83
2022/12/03 01:53:37;;;;;;;55.13;10.90;;;;;;;;;;4971372;28;20177;-83
2022/12/03 01:56:03;;;;;;;59.23;12.43;;;;;;;;;;4972703;28;20216;-83
2022/12/03 01:58:28;;;;;;;61.57;11.20;;;;;;;;;;4975738;28;20176;-83
2022/12/03 02:00:55;;;;;;;30.60;10.57;;;;;;;;;;4973401;28;20184;-83
2022/12/03 02:03:22;;;;;;;67.53;13.07;;;;;;;;;;4978703;28;20187;-83
2022/12/03 02:05:47;;;;;;;16.80;10.00;;;;;;;;;;4973412;28;20185;-84
2022/12/03 02:08:26;;;;;;;15.80;10.57;;;;;;;;;;4974210;28;20231;-83
2022/12/03 02:10:51;;;;;;;13.47;9.93;;;;;;;;;;4983675;28;20204;-83
2022/12/03 02:13:16;;;;;;;16.83;10.67;;;;;;;;;;4971602;28;20239;-83
2022/12/03 02:15:41;;;;;;;14.57;9.50;;;;;;;;;;4981290;28;20173;-83
2022/12/03 02:18:07;;;;;;;18.73;11.20;;;;;;;;;;4971069;28;20297;-83
2022/12/03 02:20:36;;;;;;;15.87;10.77;;;;;;;;;;4970641;28;20220;-83
2022/12/03 02:23:08;;;;;;;15.47;9.67;;;;;;;;;;4972238;28;20189;-83
2022/12/03 02:25:34;;;;;;;16.90;10.77;;;;;;;;;;4968136;28;20203;-83
2022/12/03 02:28:00;;;;;;;17.70;11.50;;;;;;;;;;4971170;28;20267;-83
2022/12/03 02:30:27;;;;;;;18.17;11.93;;;;;;;;;;4971646;28;20200;-83
2022/12/03 02:32:52;;;;;;;15.77;10.90;;;;;;;;;;4978327;28;20195;-83
2022/12/03 02:35:20;;;;;;;17.63;11.00;;;;;;;;;;4973284;28;20181;-83
2022/12/03 02:37:46;;;;;;;16.87;10.90;;;;;;;;;;4971444;28;20200;-83
2022/12/03 02:40:13;;;;;;;19.97;10.63;;;;;;;;;;4971061;28;20215;-83
2022/12/03 02:42:38;;;;;;;18.40;10.53;;;;;;;;;;4968390;28;20315;-83
2022/12/03 02:45:03;;;;;;;17.53;11.47;;;;;;;;;;4974623;28;20279;-83
2022/12/03 02:47:30;;;;;;;18.00;11.90;;;;;;;;;;4973242;28;20179;-83
2022/12/03 02:49:55;;;;;;;27.80;12.97;;;;;;;;;;4974312;28;20193;-83
2022/12/03 02:52:20;;;;;;;25.70;12.27;;;;;;;;;;4973933;28;20312;-83
2022/12/03 02:54:46;;;;;;;18.90;11.67;;;;;;;;;;4996168;28;20175;-83
2022/12/03 02:57:12;;;;;;;24.47;13.40;;;;;;;;;;4970355;28;20192;-83
2022/12/03 02:59:37;;;;;;;18.77;11.53;;;;;;;;;;4974970;28;20173;-83
2022/12/03 03:02:03;;;;;;;19.30;12.47;;;;;;;;;;4992166;28;20224;-83
2022/12/03 03:04:28;;;;;;;22.07;13.23;;;;;;;;;;4972830;28;20180;-83
2022/12/03 03:06:54;;;;;;;18.23;11.83;;;;;;;;;;4971376;28;20177;-83
2022/12/03 03:09:19;;;;;;;21.70;13.10;;;;;;;;;;4977123;28;20184;-83
2022/12/03 03:11:45;;;;;;;20.13;12.40;;;;;;;;;;4977044;28;20199;-83
2022/12/03 03:14:10;;;;;;;19.40;12.63;;;;;;;;;;4970014;28;20186;-83
2022/12/03 03:16:35;;;;;;;22.33;14.97;;;;;;;;;;4971093;28;20243;-83
2022/12/03 03:19:01;;;;;;;20.23;13.07;;;;;;;;;;4985299;28;20209;-83
2022/12/03 03:21:26;;;;;;;20.83;12.60;;;;;;;;;;4974925;28;20231;-83
2022/12/03 03:23:51;;;;;;;20.93;13.83;;;;;;;;;;4970427;28;20176;-83
2022/12/03 03:26:16;;;;;;;21.20;12.53;;;;;;;;;;4972928;28;20188;-83
2022/12/03 03:28:43;;;;;;;24.17;13.70;;;;;;;;;;4975302;28;20188;-83
2022/12/03 03:31:10;;;;;;;21.53;14.00;;;;;;;;;;4976497;28;20205;-83
2022/12/03 03:33:36;;;;;;;22.23;13.33;;;;;;;;;;4983597;28;20176;-83
2022/12/03 03:36:01;;;;;;;22.80;13.97;;;;;;;;;;4986425;28;20191;-83
2022/12/03 03:38:28;;;;;;;27.43;13.10;;;;;;;;;;4975904;28;20185;-83
2022/12/03 03:40:53;;;;;;;23.40;12.70;;;;;;;;;;4991894;28;20275;-83
2022/12/03 03:43:22;;;;;;;26.10;12.20;;;;;;;;;;4966834;28;20260;-83
2022/12/03 03:45:47;;;;;;;21.83;12.97;;;;;;;;;;4969710;28;20280;-83
2022/12/03 03:48:13;;;;;;;31.77;13.50;;;;;;;;;;4969902;28;20260;-83
2022/12/03 03:50:39;;;;;;;34.97;13.90;;;;;;;;;;4973211;28;20205;-83
2022/12/03 03:53:05;;;;;;;25.47;13.63;;;;;;;;;;4969840;28;20181;-83
2022/12/03 03:55:30;;;;;;;38.00;15.13;;;;;;;;;;4966502;28;20226;-83
2022/12/03 03:57:56;;;;;;;29.37;14.20;;;;;;;;;;4971668;28;20274;-83
2022/12/03 04:00:21;;;;;;;25.73;13.40;;;;;;;;;;4974620;28;20188;-83
2022/12/03 04:02:46;;;;;;;38.57;14.53;;;;;;;;;;4980034;28;20189;-83
2022/12/03 04:05:16;;;;;;;30.17;13.53;;;;;;;;;;4968913;28;20275;-83
2022/12/03 04:07:42;;;;;;;29.20;13.37;;;;;;;;;;4969267;28;20183;-83
2022/12/03 04:12:54;;;;;;;28.70;15.97;;;;;;;;;;4976752;28;20191;-83
2022/12/03 04:15:20;;;;;;;23.57;13.83;;;;;;;;;;4977181;28;20184;-83
2022/12/03 04:18:41;;;;;;;58.10;15.60;;;;;;;;;;4977909;28;20206;-83
2022/12/03 04:20:30;;;;;;;57.57;17.00;;;;;;;;;;4978771;28;20283;-83
2022/12/03 04:22:55;;;;;;;74.23;17.17;;;;;;;;;;4967377;28;20184;-83
2022/12/03 04:30:48;;;;;;;24.40;12.70;;;;;;;;;;4970300;28;20203;-83
2022/12/03 04:35:57;;;;;;;89.43;16.10;;;;;;;;;;4965795;28;20191;-83
2022/12/03 04:38:23;;;;;;;47.93;14.43;;;;;;;;;;4968962;28;20181;-83
2022/12/03 04:41:00;;;;;;;108.43;17.83;;;;;;;;;;4980130;28;20319;-83
2022/12/03 04:43:26;;;;;;;83.27;17.03;;;;;;;;;;4973586;28;20327;-83
2022/12/03 04:45:51;;;;;;;236.33;21.53;;;;;;;;;;4977385;28;20278;-83
2022/12/03 04:48:17;;;;;;;70.73;15.40;;;;;;;;;;4982629;28;20180;-83
2022/12/03 04:50:42;;;;;;;56.77;14.33;;;;;;;;;;4973556;28;20204;-83
2022/12/03 04:53:07;;;;;;;299.93;26.80;;;;;;;;;;4967326;28;20191;-83
2022/12/03 04:55:32;;;;;;;83.13;15.37;;;;;;;;;;4970272;28;20176;-83
2022/12/03 04:57:58;;;;;;;149.47;18.77;;;;;;;;;;4974106;28;20187;-83
2022/12/03 05:00:23;;;;;;;95.13;15.93;;;;;;;;;;4972865;28;20184;-83
2022/12/03 05:02:48;;;;;;;81.53;16.33;;;;;;;;;;4968326;28;20296;-84
2022/12/03 05:05:13;;;;;;;47.93;13.70;;;;;;;;;;4968273;28;20215;-83
2022/12/03 05:07:39;;;;;;;52.87;14.07;;;;;;;;;;4973391;28;20193;-83
2022/12/03 05:10:05;;;;;;;26.43;13.17;;;;;;;;;;4977254;28;20204;-83
2022/12/03 05:12:30;;;;;;;140.23;17.67;;;;;;;;;;4972776;28;20183;-83
2022/12/03 05:14:55;;;;;;;59.50;14.60;;;;;;;;;;4978848;28;20184;-83
2022/12/03 05:17:20;;;;;;;62.33;13.83;;;;;;;;;;4973739;28;20253;-83
2022/12/03 05:22:29;;;;;;;31.43;12.33;;;;;;;;;;4977814;28;20258;-83
2022/12/03 05:24:55;;;;;;;38.53;12.43;;;;;;;;;;4974551;28;20177;-83
2022/12/03 05:27:20;;;;;;;53.77;12.87;;;;;;;;;;4972550;28;20173;-83
2022/12/03 05:29:45;;;;;;;90.23;15.97;;;;;;;;;;4990952;28;20185;-84
2022/12/03 05:32:11;;;;;;;58.47;16.07;;;;;;;;;;4979854;28;20184;-83
2022/12/03 05:34:36;;;;;;;40.57;13.83;;;;;;;;;;4976389;28;20271;-83
2022/12/03 05:37:01;;;;;;;81.77;18.30;;;;;;;;;;4976196;28;20257;-83
2022/12/03 05:39:26;;;;;;;136.33;20.80;;;;;;;;;;4973798;28;20177;-83
2022/12/03 05:44:35;;;;;;;93.13;18.17;;;;;;;;;;4969618;28;20192;-83
2022/12/03 05:47:01;;;;;;;33.23;16.40;;;;;;;;;;4970485;28;20188;-83
2022/12/03 05:49:26;;;;;;;27.10;15.40;;;;;;;;;;4973720;28;20188;-83
2022/12/03 05:51:51;;;;;;;23.53;13.47;;;;;;;;;;4974604;28;20204;-83
2022/12/03 05:54:16;;;;;;;22.97;14.30;;;;;;;;;;4978540;28;20188;-83
2022/12/03 05:56:42;;;;;;;29.90;15.80;;;;;;;;;;4976932;28;20183;-83
2022/12/03 05:59:07;;;;;;;27.33;15.57;;;;;;;;;;4975441;28;20189;-83
2022/12/03 06:01:33;;;;;;;27.67;16.53;;;;;;;;;;4970389;28;20188;-83
2022/12/03 06:03:58;;;;;;;25.67;15.23;;;;;;;;;;4973593;28;20184;-84
2022/12/03 06:06:23;;;;;;;30.00;16.40;;;;;;;;;;4980403;28;20275;-83
2022/12/03 06:08:48;;;;;;;28.50;15.50;;;;;;;;;;4978817;28;20274;-82
2022/12/03 06:11:14;;;;;;;25.17;14.57;;;;;;;;;;4972135;28;20223;-83
2022/12/03 06:13:39;;;;;;;28.50;15.73;;;;;;;;;;4972381;28;20186;-84
2022/12/03 06:16:04;;;;;;;24.23;13.77;;;;;;;;;;4975058;28;20184;-83
2022/12/03 06:18:29;;;;;;;23.43;12.80;;;;;;;;;;4973514;28;20197;-83
2022/12/03 06:20:55;;;;;;;35.60;16.37;;;;;;;;;;4971872;28;20231;-83
2022/12/03 06:23:20;;;;;;;26.43;14.57;;;;;;;;;;4967274;28;20180;-83
2022/12/03 06:25:45;;;;;;;26.57;14.87;;;;;;;;;;4971590;28;20181;-83
2022/12/03 06:28:10;;;;;;;28.77;16.20;;;;;;;;;;4972631;28;20196;-83
2022/12/03 06:30:35;;;;;;;28.63;16.53;;;;;;;;;;4976420;28;20204;-83
2022/12/03 06:33:01;;;;;;;25.40;15.03;;;;;;;;;;4966634;28;20238;-83
2022/12/03 06:35:26;;;;;;;32.27;15.20;;;;;;;;;;4975542;28;20171;-83
2022/12/03 06:37:51;;;;;;;25.67;14.93;;;;;;;;;;4975191;28;20204;-83
2022/12/03 06:40:16;;;;;;;24.90;14.80;;;;;;;;;;4980090;28;20753;-83
2022/12/03 06:42:42;;;;;;;22.37;12.83;;;;;;;;;;4975449;28;20238;-83
2022/12/03 06:45:07;;;;;;;30.17;16.17;;;;;;;;;;4973245;28;20283;-83
2022/12/03 06:47:32;;;;;;;26.33;16.03;;;;;;;;;;4970403;28;20177;-83
2022/12/03 06:49:58;;;;;;;24.50;14.93;;;;;;;;;;4973747;28;20200;-83
2022/12/03 06:52:23;;;;;;;24.93;15.57;;;;;;;;;;4972375;28;20177;-83
2022/12/03 06:54:48;;;;;;;29.17;18.47;;;;;;;;;;4970534;28;20216;-83
2022/12/03 06:57:13;;;;;;;21.93;14.43;;;;;;;;;;4973296;28;20173;-83
2022/12/03 06:59:39;;;;;;;25.37;15.47;;;;;;;;;;4980627;28;20180;-83
2022/12/03 07:02:04;;;;;;;25.43;15.60;;;;;;;;;;4972360;28;20184;-83
2022/12/03 07:04:29;;;;;;;26.07;14.00;;;;;;;;;;4977998;28;20172;-84
2022/12/03 07:06:54;;;;;;;26.33;16.00;;;;;;;;;;4967920;28;20173;-83
2022/12/03 07:09:20;;;;;;;23.37;13.77;;;;;;;;;;4970190;28;20181;-83
2022/12/03 07:11:45;;;;;;;29.37;14.10;;;;;;;;;;4980109;28;20279;-83
2022/12/03 07:14:10;;;;;;;28.97;17.43;;;;;;;;;;4970778;28;20189;-83
2022/12/03 07:16:36;;;;;;;23.30;14.80;;;;;;;;;;4985863;28;20168;-83
2022/12/03 07:19:01;;;;;;;26.53;16.23;;;;;;;;;;4969804;28;20196;-83
2022/12/03 07:21:27;;;;;;;29.33;16.03;;;;;;;;;;4976875;28;20220;-83
2022/12/03 07:23:52;;;;;;;28.67;16.77;;;;;;;;;;4970254;28;20185;-83
2022/12/03 07:26:18;;;;;;;28.63;14.67;;;;;;;;;;4967466;28;20196;-83
2022/12/03 07:28:43;;;;;;;26.90;14.83;;;;;;;;;;4968531;28;20212;-83
2022/12/03 07:31:08;;;;;;;29.50;16.53;;;;;;;;;;4967995;28;22098;-83
2022/12/03 07:33:33;;;;;;;25.73;16.40;;;;;;;;;;4961366;28;20267;-83
2022/12/03 07:35:58;;;;;;;28.77;15.30;;;;;;;;;;4971990;28;20183;-83
2022/12/03 07:38:24;;;;;;;31.87;17.57;;;;;;;;;;4964864;28;20248;-83
2022/12/03 07:40:49;;;;;;;30.20;18.53;;;;;;;;;;4969863;28;20181;-83
2022/12/03 07:43:14;;;;;;;27.67;16.53;;;;;;;;;;4967976;28;20235;-83
2022/12/03 07:45:39;;;;;;;28.50;16.33;;;;;;;;;;4970399;28;20212;-83
2022/12/03 07:48:05;;;;;;;24.57;16.17;;;;;;;;;;4970091;28;20180;-83
2022/12/03 07:50:30;;;;;;;27.23;17.10;;;;;;;;;;4971336;28;20204;-83
2022/12/03 07:52:55;;;;;;;26.70;15.57;;;;;;;;;;4970482;28;20181;-83
2022/12/03 07:55:20;;;;;;;30.17;17.90;;;;;;;;;;4970162;28;20230;-83
2022/12/03 07:57:46;;;;;;;25.43;16.47;;;;;;;;;;4971721;28;20181;-83
2022/12/03 08:00:12;;;;;;;26.70;15.70;;;;;;;;;;4976752;28;20192;-83
2022/12/03 08:02:37;;;;;;;29.43;19.43;;;;;;;;;;4974935;28;20176;-83
2022/12/03 08:05:03;;;;;;;27.20;16.37;;;;;;;;;;4977915;28;20185;-83
2022/12/03 08:07:28;;;;;;;29.63;17.90;;;;;;;;;;4972620;28;20223;-83
2022/12/03 08:09:54;;;;;;;31.33;20.40;;;;;;;;;;4968100;28;20247;-83
2022/12/03 08:12:38;;;;;;;26.53;14.77;;;;;;;;;;4972061;28;20236;-83
2022/12/03 08:15:17;;;;;;;26.97;14.90;;;;;;;;;;4970856;28;20212;-83
2022/12/03 08:17:49;;;;;;;31.60;16.73;;;;;;;;;;4973220;28;20200;-83
2022/12/03 08:20:17;;;;;;;29.30;17.50;;;;;;;;;;4968088;28;20211;-83
2022/12/03 08:22:43;;;;;;;26.70;16.37;;;;;;;;;;4975674;28;20184;-83
2022/12/03 08:25:13;;;;;;;21.43;13.53;;;;;;;;;;4968996;28;20780;-84
2022/12/03 08:27:38;;;;;;;26.97;15.37;;;;;;;;;;4969837;28;20185;-82
2022/12/03 08:30:04;;;;;;;33.83;20.27;;;;;;;;;;4969207;28;20308;-83
2022/12/03 08:32:30;;;;;;;21.47;12.10;;;;;;;;;;4963797;28;20185;-83
2022/12/03 08:34:55;;;;;;;32.23;15.87;;;;;;;;;;4968500;28;20180;-83
2022/12/03 08:37:20;;;;;;;28.53;17.60;;;;;;;;;;4967539;28;20188;-83
2022/12/03 08:39:47;;;;;;;30.17;18.57;;;;;;;;;;4960076;28;21319;-83
2022/12/03 08:45:16;;;;;;;26.13;15.20;;;;;;;;;;4971697;28;20192;-83
2022/12/03 08:47:41;;;;;;;27.47;16.43;;;;;;;;;;4971219;28;20181;-83
2022/12/03 08:50:24;;;;;;;28.63;16.70;;;;;;;;;;4973971;28;20205;-83
2022/12/03 08:52:49;;;;;;;27.10;16.07;;;;;;;;;;4973468;28;20326;-83
2022/12/03 08:55:32;;;;;;;29.97;16.93;;;;;;;;;;4974188;28;20263;-83
2022/12/03 08:57:58;;;;;;;29.47;16.80;;;;;;;;;;4969057;28;20184;-83
2022/12/03 09:00:23;;;;;;;24.53;14.33;;;;;;;;;;4971363;28;20197;-83
2022/12/03 09:02:53;;;;;;;29.13;16.07;;;;;;;;;;4975726;28;20183;-83
2022/12/03 09:05:19;;;;;;;27.70;17.30;;;;;;;;;;4972383;28;20181;-83
2022/12/03 09:07:45;;;;;;;27.73;15.30;;;;;;;;;;4968923;28;20204;-83
2022/12/03 09:10:10;;;;;;;30.80;16.23;;;;;;;;;;4974174;28;20232;-83
2022/12/03 09:12:35;;;;;;;32.57;18.30;;;;;;;;;;4971791;28;20188;-83
2022/12/03 09:15:00;;;;;;;27.87;15.53;;;;;;;;;;4970104;28;20204;-83
2022/12/03 09:17:26;;;;;;;26.77;15.43;;;;;;;;;;4970934;28;20235;-83
2022/12/03 09:19:51;;;;;;;26.03;15.13;;;;;;;;;;4972624;28;20206;-83
2022/12/03 09:22:17;;;;;;;25.63;15.23;;;;;;;;;;4971947;28;20259;-83
2022/12/03 09:24:57;;;;;;;27.27;15.87;;;;;;;;;;4947538;28;20224;-83
2022/12/03 09:27:22;;;;;;;25.60;15.67;;;;;;;;;;4971197;28;20219;-83
2022/12/03 09:29:48;;;;;;;24.77;14.17;;;;;;;;;;4968744;28;20208;-83
2022/12/03 09:32:13;;;;;;;28.17;15.97;;;;;;;;;;4972997;28;20251;-83
2022/12/03 09:34:39;;;;;;;24.73;17.93;;;;;;;;;;4963276;28;20185;-83
2022/12/03 09:37:04;;;;;;;25.80;16.37;;;;;;;;;;4965574;28;20215;-83
2022/12/03 09:39:29;;;;;;;25.07;15.77;;;;;;;;;;4973039;28;20189;-83
2022/12/03 09:41:54;;;;;;;25.93;16.00;;;;;;;;;;4973907;28;20279;-83
2022/12/03 09:44:20;;;;;;;29.40;15.83;;;;;;;;;;4970176;28;20220;-83
2022/12/03 09:46:46;;;;;;;32.77;17.47;;;;;;;;;;4970275;28;20184;-83
2022/12/03 09:49:12;;;;;;;30.77;15.87;;;;;;;;;;4969695;28;20181;-83
2022/12/03 09:51:38;;;;;;;31.33;18.57;;;;;;;;;;4975007;28;20204;-83
2022/12/03 09:54:04;;;;;;;32.37;17.70;;;;;;;;;;4968179;28;20184;-82
2022/12/03 09:56:30;;;;;;;29.03;17.00;;;;;;;;;;4967800;28;20169;-83
2022/12/03 09:58:55;;;;;;;31.33;16.80;;;;;;;;;;4970561;28;20181;-83
2022/12/03 10:01:21;;;;;;;36.47;20.03;;;;;;;;;;4973355;28;20220;-82
2022/12/03 10:03:50;;;;;;;29.33;16.23;;;;;;;;;;4973766;28;20180;-82
2022/12/03 10:06:19;;;;;;;31.57;16.83;;;;;;;;;;4969205;28;20208;-82
2022/12/03 10:08:48;;;;;;;32.47;17.17;;;;;;;;;;4970873;28;20191;-83
2022/12/03 10:11:14;;;;;;;31.23;16.97;;;;;;;;;;4973152;28;20201;-83
2022/12/03 10:13:39;;;;;;;28.13;17.37;;;;;;;;;;4965294;28;20354;-81
2022/12/03 10:16:08;;;;;;;29.33;17.30;;;;;;;;;;4971959;28;20173;-83
2022/12/03 10:18:34;;;;;;;33.17;17.77;;;;;;;;;;4970966;28;20206;-83
2022/12/03 10:20:59;;;;;;;36.67;20.60;;;;;;;;;;4970187;28;20231;-83
2022/12/03 10:23:29;;;;;;;35.87;18.97;;;;;;;;;;4971211;28;20335;-83
2022/12/03 10:25:58;;;;;;;36.63;18.73;;;;;;;;;;4971015;28;20185;-82
2022/12/03 10:28:42;;;;;;;33.93;19.13;;;;;;;;;;4970317;28;20259;-83
2022/12/03 10:31:10;;;;;;;26.07;15.80;;;;;;;;;;4986254;28;20216;-83
2022/12/03 10:33:40;;;;;;;40.47;18.67;;;;;;;;;;4975491;28;20187;-83
2022/12/03 10:36:22;;;;;;;32.17;16.30;;;;;;;;;;4970484;28;20196;-83
2022/12/03 10:39:04;;;;;;;33.70;16.37;;;;;;;;;;4963853;28;20192;-83
2022/12/03 10:41:29;;;;;;;30.43;18.13;;;;;;;;;;4972388;28;20263;-82
2022/12/03 10:44:09;;;;;;;53.77;18.73;;;;;;;;;;4969627;28;20228;-83
2022/12/03 10:46:35;;;;;;;32.07;17.23;;;;;;;;;;4970002;28;20187;-83
2022/12/03 10:49:07;;;;;;;29.40;16.53;;;;;;;;;;4975166;28;20185;-82
2022/12/03 10:51:33;;;;;;;27.60;17.07;;;;;;;;;;4963197;28;20204;-83
2022/12/03 10:53:58;;;;;;;32.97;19.67;;;;;;;;;;4967092;28;20188;-83
2022/12/03 10:56:24;;;;;;;24.37;14.73;;;;;;;;;;4959798;28;20180;-83
2022/12/03 10:58:49;;;;;;;24.37;14.40;;;;;;;;;;4967140;28;20220;-83
2022/12/03 11:01:16;;;;;;;33.83;16.33;;;;;;;;;;4965752;28;20196;-82
2022/12/03 11:03:42;;;;;;;27.53;16.57;;;;;;;;;;4963933;28;20188;-82
2022/12/03 11:06:14;;;;;;;31.80;16.43;;;;;;;;;;4966955;28;20197;-82
2022/12/03 11:08:40;;;;;;;31.77;17.77;;;;;;;;;;4982748;28;20192;-82
2022/12/03 11:11:11;;;;;;;26.40;15.10;;;;;;;;;;4972233;28;20207;-83
2022/12/03 11:13:37;;;;;;;30.80;17.60;;;;;;;;;;4977262;28;20262;-83
2022/12/03 11:16:03;;;;;;;29.98;15.70;;;;;;;;;;4972165;28;20236;-83
2022/12/03 11:18:34;;;;;;;27.90;15.60;;;;;;;;;;4967912;28;20208;-83
2022/12/03 11:21:01;;;;;;;32.33;16.17;;;;;;;;;;4969413;28;20224;-82
2022/12/03 11:23:44;;;;;;;36.40;21.63;;;;;;;;;;4972449;28;20196;-83
2022/12/03 11:26:10;;;;;;;33.67;19.23;;;;;;;;;;4971030;28;20177;-82
2022/12/03 11:28:36;;;;;;;27.00;14.93;;;;;;;;;;4974316;28;20240;-83
2022/12/03 11:31:10;;;;;;;27.03;16.40;;;;;;;;;;4970342;28;20209;-83
2022/12/03 11:33:37;;;;;;;30.57;17.23;;;;;;;;;;4980227;28;20180;-82
2022/12/03 11:36:02;;;;;;;29.03;15.13;;;;;;;;;;4967374;28;20188;-82
2022/12/03 11:38:37;;;;;;;26.67;14.67;;;;;;;;;;4970436;28;20177;-83
2022/12/03 11:41:21;;;;;;;26.00;15.03;;;;;;;;;;4972728;28;20177;-83
2022/12/03 11:43:54;;;;;;;29.13;16.57;;;;;;;;;;4983540;28;20243;-83
2022/12/03 11:46:40;;;;;;;43.57;16.67;;;;;;;;;;4971378;28;20239;-83
2022/12/03 11:49:27;;;;;;;36.03;15.13;;;;;;;;;;4972261;28;20197;-82
2022/12/03 11:51:53;;;;;;;42.03;16.97;;;;;;;;;;4983586;28;20267;-82
2022/12/03 11:54:20;;;;;;;33.37;16.00;;;;;;;;;;4968732;28;20184;-83
2022/12/03 11:56:47;;;;;;;42.47;15.67;;;;;;;;;;4973872;28;20180;-82
2022/12/03 11:59:13;;;;;;;48.23;14.70;;;;;;;;;;4967588;28;20234;-82
2022/12/03 12:01:39;;;;;;;33.23;17.50;;;;;;;;;;4971372;28;20216;-83
2022/12/03 12:04:05;;;;;;;31.57;12.30;;;;;;;;;;4974784;28;20192;-83
2022/12/03 12:06:40;;;;;;;32.50;16.77;;;;;;;;;;4972203;28;20271;-83
2022/12/03 12:09:05;;;;;;;21.53;10.83;;;;;;;;;;4970651;28;20210;-83
2022/12/03 12:11:40;;;;;;;35.50;18.53;;;;;;;;;;4965720;28;20204;-83
2022/12/03 12:14:06;;;;;;;38.10;17.47;;;;;;;;;;4966318;28;20234;-83
2022/12/03 12:16:37;;;;;;;50.67;16.30;;;;;;;;;;4969149;28;20196;-82
2022/12/03 12:19:21;;;;;;;30.43;16.60;;;;;;;;;;4970363;28;20197;-82
2022/12/03 12:21:48;;;;;;;33.17;15.63;;;;;;;;;;4973516;28;20262;-83
2022/12/03 12:24:30;;;;;;;28.47;15.97;;;;;;;;;;4972763;28;20211;-82
2022/12/03 12:26:56;;;;;;;33.43;17.00;;;;;;;;;;4969905;28;20188;-83
2022/12/03 12:29:21;;;;;;;34.67;16.17;;;;;;;;;;4963292;28;20182;-82
2022/12/03 12:31:49;;;;;;;31.30;17.80;;;;;;;;;;4986868;28;20216;-83
2022/12/03 12:34:14;;;;;;;29.97;16.17;;;;;;;;;;4983203;28;20232;-82
2022/12/03 12:36:40;;;;;;;30.77;17.27;;;;;;;;;;4980003;28;20173;-83
2022/12/03 12:39:13;;;;;;;31.53;17.30;;;;;;;;;;4969471;28;20184;-82
2022/12/03 12:41:39;;;;;;;36.97;21.43;;;;;;;;;;4970956;28;20215;-82
2022/12/03 12:44:08;;;;;;;27.83;15.67;;;;;;;;;;4967156;28;20185;-82
2022/12/03 12:46:34;;;;;;;24.20;14.47;;;;;;;;;;4969678;28;20243;-83
2022/12/03 12:48:59;;;;;;;31.97;16.10;;;;;;;;;;4966601;28;20284;-83
2022/12/03 12:51:24;;;;;;;31.13;15.97;;;;;;;;;;4970606;28;20216;-83
2022/12/03 12:53:49;;;;;;;34.37;16.03;;;;;;;;;;4968666;28;20181;-83
2022/12/03 12:56:24;;;;;;;30.47;16.37;;;;;;;;;;4972920;28;20334;-83
2022/12/03 12:59:12;;;;;;;28.47;14.33;;;;;;;;;;4969196;28;20169;-82
2022/12/03 13:01:44;;;;;;;27.23;15.60;;;;;;;;;;4963439;28;20196;-83
2022/12/03 13:04:11;;;;;;;31.17;14.70;;;;;;;;;;4965125;28;20190;-83
2022/12/03 13:06:39;;;;;;;23.33;12.93;;;;;;;;;;4971091;28;20177;-83
2022/12/03 13:09:07;;;;;;;15.73;8.93;;;;;;;;;;4965784;28;20181;-82
2022/12/03 13:11:41;;;;;;;25.67;16.17;;;;;;;;;;4962627;28;20220;-83
2022/12/03 13:14:17;;;;;;;29.70;15.17;;;;;;;;;;4967641;28;20239;-83
2022/12/03 13:16:42;;;;;;;27.23;16.63;;;;;;;;;;4964112;28;20192;-83
2022/12/03 13:19:12;;;;;;;28.07;15.97;;;;;;;;;;4985342;28;20275;-83
2022/12/03 13:21:38;;;;;;;30.83;17.47;;;;;;;;;;4974777;28;20274;-82
2022/12/03 13:24:22;;;;;;;29.63;17.23;;;;;;;;;;4965661;28;20186;-83
2022/12/03 13:26:48;;;;;;;36.43;21.10;;;;;;;;;;4968887;28;20211;-83
2022/12/03 13:29:14;;;;;;;35.30;20.03;;;;;;;;;;4969788;28;20185;-82
2022/12/03 13:31:39;;;;;;;38.73;21.27;;;;;;;;;;4970976;28;20208;-83
2022/12/03 13:34:41;;;;;;;34.50;18.30;;;;;;;;;;4967732;28;20184;-82
2022/12/03 13:37:12;;;;;;;33.60;15.23;;;;;;;;;;4930345;29;20220;-82
2022/12/03 13:39:41;;;;;;;24.47;15.53;;;;;;;;;;4935548;29;20186;-82
2022/12/03 13:42:38;;;;;;;27.33;13.80;;;;;;;;;;4938137;28;20185;-82
2022/12/03 13:45:14;;;;;;;23.50;14.27;;;;;;;;;;4936728;29;20197;-82
2022/12/03 13:47:40;;;;;;;35.97;17.10;;;;;;;;;;4955784;28;20244;-83
2022/12/03 13:50:24;;;;;;;55.70;16.73;;;;;;;;;;4935891;28;20181;-82
2022/12/03 13:52:51;;;;;;;30.93;17.37;;;;;;;;;;4931689;29;20201;-82
2022/12/03 13:55:23;;;;;;;37.83;17.63;;;;;;;;;;4937016;29;20186;-82
2022/12/03 13:57:48;;;;;;;44.97;16.80;;;;;;;;;;4939187;29;20190;-82
2022/12/03 14:00:13;;;;;;;30.90;16.20;;;;;;;;;;4950952;28;20189;-82
2022/12/03 14:02:39;;;;;;;34.17;15.30;;;;;;;;;;4947800;28;20281;-83
2022/12/03 14:05:04;;;;;;;26.00;11.23;;;;;;;;;;4934163;29;20200;-82
2022/12/03 14:07:29;;;;;;;37.20;16.47;;;;;;;;;;4935696;29;20192;-82
2022/12/03 14:09:54;;;;;;;45.47;15.63;;;;;;;;;;4948243;28;20181;-82
2022/12/03 14:12:25;;;;;;;36.10;14.77;;;;;;;;;;4972911;28;20293;-82
2022/12/03 14:14:51;;;;;;;28.80;15.67;;;;;;;;;;4976178;28;20235;-83
2022/12/03 14:17:16;;;;;;;11.90;7.67;;;;;;;;;;4973834;28;20200;-83
2022/12/03 14:19:42;;;;;;;30.27;11.70;;;;;;;;;;4973066;28;20172;-82
2022/12/03 14:22:08;;;;;;;18.50;11.90;;;;;;;;;;4971713;28;20247;-83
2022/12/03 14:24:33;;;;;;;18.83;9.57;;;;;;;;;;4977952;28;20172;-82
2022/12/03 14:26:59;;;;;;;20.87;12.90;;;;;;;;;;4970110;28;20246;-82
2022/12/03 14:29:24;;;;;;;20.93;10.93;;;;;;;;;;4973746;28;20181;-82
2022/12/03 14:31:49;;;;;;;26.37;13.90;;;;;;;;;;4972059;28;20215;-82
2022/12/03 14:34:14;;;;;;;25.30;11.87;;;;;;;;;;4966243;28;20181;-82
2022/12/03 14:36:39;;;;;;;24.60;13.03;;;;;;;;;;4971890;28;20180;-83
2022/12/03 14:39:05;;;;;;;30.00;12.60;;;;;;;;;;4971956;28;20177;-83
2022/12/03 14:44:14;;;;;;;25.13;13.67;;;;;;;;;;4971084;28;20191;-82